Accueil
METAR-TAF:

METAR-TAF

Aéroports :

Searle Field

Ogallala, Nebraska, États-Unis

latitude: 41-07-11N, longitude: 101-46-08W, altitude: 999 m

Observation

Le bulletin a été fait il y a 19 minutes, à 01:15 UTC
Vent 3 kt de sud/sud-ouest
Température 23°C
Humidité 65%
Pression 1022 hPa
Visibilité: 16.1 km
Ciel clair

METAR: KOGA 220115Z AUTO 21003KT 10SM CLR 23/16 A3017 RMK AO2 LTG DSNT N AND NE T02310163

Heure: 19:34 (01:34 UTC)


TAF: absent

Observations et prévisions météorologiques de plus de 4000 aéroports (messages METAR et TAF).

Les stations disponibles sont représentées par des disques jaunes et rouges sur la carte.

Passer la souris dessus pour voir le nom de la station.

Cliquer dessus pour voir les observations et prévisions météorologiques.

Pour changer de carte: cliquez sur les boutons verts avec une croix noire pour zoomer, sur le bouton vert avec un tiret pour effectuer un zoom arrière, ou sur les flèches vertes pour les cartes adjacentes.


METAR-TAF: